This is the latest recevied weather packets stored in our database for station/object AI4ZL. If no packets are shown the sender has not sent any weather packets the latest 10 day(s).
| Time | Temp. | Humidity | Pressure | Rain* | Wind** | Luminosity | Snow |
|---|---|---|---|---|---|---|---|
| 1777241302 | 26.67° C | 51% | 1012.9 hPa | 0 mm | - | 453 W/m² | - |
| 1777236952 | 27.22° C | 45% | 1012.9 hPa | 0 mm | - | 289 W/m² | - |
| 1777229128 | 27.78° C | 49% | 1014 hPa | 0 mm | - | 542 W/m² | - |
| 1777227921 | 27.78° C | 48% | 1014.4 hPa | 0 mm | - | 738 W/m² | - |
| 1777227326 | 27.22° C | 49% | 1014.5 hPa | 0 mm | - | 585 W/m² | - |
| 1777225524 | 27.78° C | 48% | 1014.9 hPa | 0 mm | - | 794 W/m² | - |
| 1777224318 | 26.67° C | 51% | 1014.9 hPa | 0 mm | - | 565 W/m² | - |
| 1777221326 | 26.11° C | 57% | 1015.4 hPa | 0 mm | - | 754 W/m² | - |
| 1777216531 | 23.89° C | 64% | 1015.5 hPa | 0 mm | - | 712 W/m² | - |
| 1777209322 | 18.33° C | 81% | 1015.1 hPa | 0 mm | - | 117 W/m² | - |
| 1777207521 | 15° C | 99% | 1014.9 hPa | 0 mm | - | 86 W/m² | - |
| 1777206944 | 15° C | 99% | 1014.7 hPa | 0 mm | - | 64 W/m² | - |
| 1777200329 | 10° C | 99% | 1014.1 hPa | 0 mm | - | 0 W/m² | - |
| 1777199735 | 10° C | 99% | 1014 hPa | 0 mm | - | 0 W/m² | - |
| 1777194501 | 11.11° C | 99% | 1013.3 hPa | 0 mm | - | 0 W/m² | - |
| 1777182941 | 13.33° C | 98% | 1013.3 hPa | 0 mm | - | 0 W/m² | - |
| 1777178721 | 13.33° C | 97% | 1013.2 hPa | 0 mm | - | 0 W/m² | - |
| 1777172125 | 15° C | 90% | 1012.6 hPa | 0 mm | - | 0 W/m² | - |
| 1777170918 | 15.56° C | 91% | 1012.2 hPa | 0 mm | - | 0 W/m² | - |
| 1777170322 | 16.11° C | 89% | 1011.8 hPa | 0 mm | - | 0 W/m² | - |
| 1777166123 | 18.89° C | 78% | 1011.4 hPa | 0 mm | - | 0 W/m² | - |
| 1777164321 | 21.11° C | 68% | 1011.1 hPa | 0 mm | - | 0 W/m² | - |
| 1777161329 | 25° C | 53% | 1010.8 hPa | 0 mm | - | 34 W/m² | - |
| 1777160122 | 26.67° C | 49% | 1010.6 hPa | 0 mm | - | 64 W/m² | - |
| 1777153525 | 27.22° C | 48% | 1010.7 hPa | 0 mm | - | 431 W/m² | - |
* Rain latest hour (hover to see other rain measurements)
** Current wind speed in m/s (hover to see current wind gust speed)